Albertson, North Carolina
Current Conditions -  °F | °C
As of 5:15 PM on Tuesday 21 Oct 2014 (Local Time) from KDPL Reporting Station
Clear Clear  
Wind Chill: 74°   Ceiling: Unl
Heat Index: 74°   Visibility: 10mi
Dew Point: 46°   Wind: 3mph
Humidity: 38%   Direction: 270°W
Pressure: 29.84"   Gusts: NA
Location:  35.11°N, 77.82°W
Report Text: KDPL 212115Z AUTO 27003KT 10SM CLR 23/08 A2984 RMK AO2 T02320080
Loading
Personal Weather Stations






























Interactive Weather Map New forecast layout! Learn more

10-Day Weather Forecast

Advertisements
Track Severe Weather on mobile